KTHA/THA METAR and TAF weather

Enter ICAO airport designator
Station Type Date Time Source
KTHA METAR 2021/07/24 19:35 UTC NOAA

KTHA 241935Z AUTO 28005G10KT 9SM FEW042 SCT050 31/21 A3006 RMK A01


Station Type Date Time Source
KTHA Decoded METAR 2021/07/24 19:35 UTC NOAA

Station name not available
Jul 24, 2021 - 03:35 PM EDT / 2021.07.24 1935 UTC
Wind: from the W (280 degrees) at 6 MPH (5 KT) gusting to 12 MPH (10 KT):0
Visibility: 9 mile(s):0
Sky conditions: partly cloudy
Temperature: 87 F (31 C)
Dew Point: 69 F (21 C)
Relative Humidity: 55%
Pressure (altimeter): 30.06 in. Hg (1017 hPa)
ob: KTHA 241935Z AUTO 28005G10KT 9SM FEW042 SCT050 31/21 A3006 RMK A01
cycle: 19

Station Type Date Time Source
KTHA TAF UTC NOAA

Error!

Example: see airport list